sensor_id;sensor_type;location;lat;lon;timestamp;pressure;altitude;pressure_sealevel;temperature
70435;BMP280;57876;47.792;12.960;2022-12-18T00:00:57;97991.66;;;16.90
70435;BMP280;57876;47.792;12.960;2022-12-18T00:03:22;97994.94;;;16.89
70435;BMP280;57876;47.792;12.960;2022-12-18T00:05:48;98006.38;;;16.87
70435;BMP280;57876;47.792;12.960;2022-12-18T00:08:12;97998.72;;;16.86
70435;BMP280;57876;47.792;12.960;2022-12-18T00:10:37;98003.25;;;16.83
70435;BMP280;57876;47.792;12.960;2022-12-18T00:13:01;98003.25;;;16.83
70435;BMP280;57876;47.792;12.960;2022-12-18T00:15:25;97996.88;;;16.81
70435;BMP280;57876;47.792;12.960;2022-12-18T00:17:50;97997.41;;;16.79
70435;BMP280;57876;47.792;12.960;2022-12-18T00:20:14;98002.13;;;16.79
70435;BMP280;57876;47.792;12.960;2022-12-18T00:22:38;98003.91;;;16.76
70435;BMP280;57876;47.792;12.960;2022-12-18T00:25:03;98004.47;;;16.75
70435;BMP280;57876;47.792;12.960;2022-12-18T00:27:28;98000.97;;;16.74
70435;BMP280;57876;47.792;12.960;2022-12-18T00:29:52;98004.25;;;16.73
70435;BMP280;57876;47.792;12.960;2022-12-18T00:32:16;98013.72;;;16.72
70435;BMP280;57876;47.792;12.960;2022-12-18T00:34:41;98015.50;;;16.69
70435;BMP280;57876;47.792;12.960;2022-12-18T00:37:05;98012.56;;;16.67
70435;BMP280;57876;47.792;12.960;2022-12-18T00:39:29;98002.94;;;16.66
70435;BMP280;57876;47.792;12.960;2022-12-18T00:41:54;98008.91;;;16.65
70435;BMP280;57876;47.792;12.960;2022-12-18T00:44:37;98017.63;;;16.63
70435;BMP280;57876;47.792;12.960;2022-12-18T00:47:01;98018.16;;;16.62
70435;BMP280;57876;47.792;12.960;2022-12-18T00:49:25;98022.16;;;16.61
70435;BMP280;57876;47.792;12.960;2022-12-18T00:51:50;98019.22;;;16.59
70435;BMP280;57876;47.792;12.960;2022-12-18T00:54:15;98021.97;;;16.59
70435;BMP280;57876;47.792;12.960;2022-12-18T00:56:40;98025.19;;;16.57
70435;BMP280;57876;47.792;12.960;2022-12-18T00:59:04;98020.28;;;16.56
70435;BMP280;57876;47.792;12.960;2022-12-18T01:01:29;98026.28;;;16.54
70435;BMP280;57876;47.792;12.960;2022-12-18T01:03:53;98011.88;;;16.54
70435;BMP280;57876;47.792;12.960;2022-12-18T01:06:18;98015.88;;;16.53
70435;BMP280;57876;47.792;12.960;2022-12-18T01:08:42;98014.38;;;16.52
70435;BMP280;57876;47.792;12.960;2022-12-18T01:11:09;98009.50;;;16.50
70435;BMP280;57876;47.792;12.960;2022-12-18T01:13:34;97996.34;;;16.49
70435;BMP280;57876;47.792;12.960;2022-12-18T01:15:59;98004.53;;;16.49
70435;BMP280;57876;47.792;12.960;2022-12-18T01:18:23;98013.25;;;16.47
70435;BMP280;57876;47.792;12.960;2022-12-18T01:20:47;98014.50;;;16.46
70435;BMP280;57876;47.792;12.960;2022-12-18T01:23:12;98035.66;;;16.46
70435;BMP280;57876;47.792;12.960;2022-12-18T01:25:36;98034.19;;;16.45
70435;BMP280;57876;47.792;12.960;2022-12-18T01:28:00;98033.44;;;16.44
70435;BMP280;57876;47.792;12.960;2022-12-18T01:30:25;98049.09;;;16.44
70435;BMP280;57876;47.792;12.960;2022-12-18T01:32:50;98037.44;;;16.43
70435;BMP280;57876;47.792;12.960;2022-12-18T01:35:14;98033.22;;;16.42
70435;BMP280;57876;47.792;12.960;2022-12-18T01:37:39;98031.03;;;16.41
70435;BMP280;57876;47.792;12.960;2022-12-18T01:40:03;98024.84;;;16.41
70435;BMP280;57876;47.792;12.960;2022-12-18T01:42:28;98032.28;;;16.40
70435;BMP280;57876;47.792;12.960;2022-12-18T01:47:42;98045.75;;;16.38
70435;BMP280;57876;47.792;12.960;2022-12-18T01:52:35;98053.75;;;16.36
70435;BMP280;57876;47.792;12.960;2022-12-18T01:55:02;98061.22;;;16.36
70435;BMP280;57876;47.792;12.960;2022-12-18T01:57:28;98049.53;;;16.35
70435;BMP280;57876;47.792;12.960;2022-12-18T01:59:54;98055.50;;;16.34
70435;BMP280;57876;47.792;12.960;2022-12-18T02:02:20;98054.78;;;16.33
70435;BMP280;57876;47.792;12.960;2022-12-18T02:04:45;98047.09;;;16.32
70435;BMP280;57876;47.792;12.960;2022-12-18T02:10:15;98041.47;;;16.30
70435;BMP280;57876;47.792;12.960;2022-12-18T02:15:36;98053.63;;;16.29
70435;BMP280;57876;47.792;12.960;2022-12-18T02:18:19;98046.69;;;16.28
70435;BMP280;57876;47.792;12.960;2022-12-18T02:20:47;98039.03;;;16.26
70435;BMP280;57876;47.792;12.960;2022-12-18T02:26:06;98043.56;;;16.24
70435;BMP280;57876;47.792;12.960;2022-12-18T02:28:35;98044.28;;;16.24
70435;BMP280;57876;47.792;12.960;2022-12-18T02:31:02;98051.00;;;16.23
70435;BMP280;57876;47.792;12.960;2022-12-18T02:33:29;98049.53;;;16.22
70435;BMP280;57876;47.792;12.960;2022-12-18T02:35:55;98048.28;;;16.23
70435;BMP280;57876;47.792;12.960;2022-12-18T02:38:20;98048.72;;;16.27
70435;BMP280;57876;47.792;12.960;2022-12-18T02:40:45;98051.88;;;16.31
70435;BMP280;57876;47.792;12.960;2022-12-18T02:43:12;98042.81;;;16.36
70435;BMP280;57876;47.792;12.960;2022-12-18T02:45:58;98041.97;;;16.41
70435;BMP280;57876;47.792;12.960;2022-12-18T02:48:25;98048.03;;;16.47
70435;BMP280;57876;47.792;12.960;2022-12-18T02:51:02;98052.63;;;16.52
70435;BMP280;57876;47.792;12.960;2022-12-18T02:53:35;98055.81;;;16.56
70435;BMP280;57876;47.792;12.960;2022-12-18T02:59:00;98061.88;;;16.62
70435;BMP280;57876;47.792;12.960;2022-12-18T03:01:40;98063.34;;;16.63
70435;BMP280;57876;47.792;12.960;2022-12-18T03:04:12;98062.59;;;16.62
70435;BMP280;57876;47.792;12.960;2022-12-18T03:06:43;98059.88;;;16.62
70435;BMP280;57876;47.792;12.960;2022-12-18T03:09:11;98060.09;;;16.64
70435;BMP280;57876;47.792;12.960;2022-12-18T03:11:40;98055.03;;;16.68
70435;BMP280;57876;47.792;12.960;2022-12-18T03:14:25;98056.56;;;16.77
70435;BMP280;57876;47.792;12.960;2022-12-18T03:16:54;98059.91;;;16.83
70435;BMP280;57876;47.792;12.960;2022-12-18T03:19:22;98057.81;;;16.89
70435;BMP280;57876;47.792;12.960;2022-12-18T03:21:53;98066.63;;;16.95
70435;BMP280;57876;47.792;12.960;2022-12-18T03:24:19;98056.63;;;16.97
70435;BMP280;57876;47.792;12.960;2022-12-18T03:26:47;98063.00;;;17.00
70435;BMP280;57876;47.792;12.960;2022-12-18T03:29:18;98059.00;;;17.01
70435;BMP280;57876;47.792;12.960;2022-12-18T03:31:47;98063.94;;;17.02
70435;BMP280;57876;47.792;12.960;2022-12-18T03:34:15;98064.69;;;17.03
70435;BMP280;57876;47.792;12.960;2022-12-18T03:36:42;98066.69;;;17.02
70435;BMP280;57876;47.792;12.960;2022-12-18T03:39:06;98061.75;;;17.01
70435;BMP280;57876;47.792;12.960;2022-12-18T03:41:45;98063.94;;;17.02
70435;BMP280;57876;47.792;12.960;2022-12-18T03:44:40;98057.22;;;17.03
70435;BMP280;57876;47.792;12.960;2022-12-18T03:52:26;98070.56;;;17.07
70435;BMP280;57876;47.792;12.960;2022-12-18T03:54:52;98074.00;;;17.07
70435;BMP280;57876;47.792;12.960;2022-12-18T03:57:23;98069.09;;;17.06
70435;BMP280;57876;47.792;12.960;2022-12-18T03:59:52;98062.16;;;17.05
70435;BMP280;57876;47.792;12.960;2022-12-18T04:02:18;98064.91;;;17.05
70435;BMP280;57876;47.792;12.960;2022-12-18T04:04:45;98071.28;;;17.07
70435;BMP280;57876;47.792;12.960;2022-12-18T04:07:11;98061.09;;;17.08
70435;BMP280;57876;47.792;12.960;2022-12-18T04:09:38;98052.38;;;17.09
70435;BMP280;57876;47.792;12.960;2022-12-18T04:12:03;98049.06;;;17.11
70435;BMP280;57876;47.792;12.960;2022-12-18T04:14:28;98055.28;;;17.11
70435;BMP280;57876;47.792;12.960;2022-12-18T04:16:52;98046.31;;;17.11
70435;BMP280;57876;47.792;12.960;2022-12-18T04:19:17;98058.56;;;17.10
70435;BMP280;57876;47.792;12.960;2022-12-18T04:21:41;98057.09;;;17.09
70435;BMP280;57876;47.792;12.960;2022-12-18T04:24:06;98060.34;;;17.07
70435;BMP280;57876;47.792;12.960;2022-12-18T04:26:30;98066.38;;;17.06
70435;BMP280;57876;47.792;12.960;2022-12-18T04:28:55;98064.34;;;17.06
70435;BMP280;57876;47.792;12.960;2022-12-18T04:31:19;98056.56;;;17.10
70435;BMP280;57876;47.792;12.960;2022-12-18T04:33:43;98058.22;;;17.13
70435;BMP280;57876;47.792;12.960;2022-12-18T04:36:08;98061.56;;;17.19
70435;BMP280;57876;47.792;12.960;2022-12-18T04:38:32;98059.75;;;17.21
70435;BMP280;57876;47.792;12.960;2022-12-18T04:40:57;98073.63;;;17.23
70435;BMP280;57876;47.792;12.960;2022-12-18T04:43:21;98073.63;;;17.23
70435;BMP280;57876;47.792;12.960;2022-12-18T04:45:46;98075.13;;;17.24
70435;BMP280;57876;47.792;12.960;2022-12-18T04:48:10;98064.69;;;17.23
70435;BMP280;57876;47.792;12.960;2022-12-18T04:50:34;98067.41;;;17.23
70435;BMP280;57876;47.792;12.960;2022-12-18T04:52:59;98069.44;;;17.22
70435;BMP280;57876;47.792;12.960;2022-12-18T04:55:27;98078.59;;;17.25
70435;BMP280;57876;47.792;12.960;2022-12-18T04:57:51;98080.25;;;17.28
70435;BMP280;57876;47.792;12.960;2022-12-18T05:00:16;98068.56;;;17.27
70435;BMP280;57876;47.792;12.960;2022-12-18T05:02:41;98079.50;;;17.27
70435;BMP280;57876;47.792;12.960;2022-12-18T05:05:05;98078.22;;;17.28
70435;BMP280;57876;47.792;12.960;2022-12-18T05:07:30;98066.56;;;17.28
70435;BMP280;57876;47.792;12.960;2022-12-18T05:09:55;98073.31;;;17.27
70435;BMP280;57876;47.792;12.960;2022-12-18T05:12:19;98066.38;;;17.26
70435;BMP280;57876;47.792;12.960;2022-12-18T05:14:44;98073.81;;;17.25
70435;BMP280;57876;47.792;12.960;2022-12-18T05:17:08;98082.22;;;17.27
70435;BMP280;57876;47.792;12.960;2022-12-18T05:19:33;98080.25;;;17.28
70435;BMP280;57876;47.792;12.960;2022-12-18T05:21:57;98083.19;;;17.30
70435;BMP280;57876;47.792;12.960;2022-12-18T05:24:21;98092.09;;;17.30
70435;BMP280;57876;47.792;12.960;2022-12-18T05:26:46;98094.81;;;17.30
70435;BMP280;57876;47.792;12.960;2022-12-18T05:29:10;98098.31;;;17.31
70435;BMP280;57876;47.792;12.960;2022-12-18T05:31:36;98090.09;;;17.31
70435;BMP280;57876;47.792;12.960;2022-12-18T05:34:00;98093.97;;;17.35
70435;BMP280;57876;47.792;12.960;2022-12-18T05:36:25;98098.56;;;17.40
70435;BMP280;57876;47.792;12.960;2022-12-18T05:38:49;98105.19;;;17.45
70435;BMP280;57876;47.792;12.960;2022-12-18T05:41:14;98103.03;;;17.51
70435;BMP280;57876;47.792;12.960;2022-12-18T05:43:39;98116.81;;;17.58
70435;BMP280;57876;47.792;12.960;2022-12-18T05:46:24;98132.22;;;17.69
70435;BMP280;57876;47.792;12.960;2022-12-18T05:48:49;98113.13;;;17.76
70435;BMP280;57876;47.792;12.960;2022-12-18T05:51:17;98112.63;;;17.85
70435;BMP280;57876;47.792;12.960;2022-12-18T05:53:43;98114.88;;;17.94
70435;BMP280;57876;47.792;12.960;2022-12-18T05:56:10;98116.75;;;17.99
70435;BMP280;57876;47.792;12.960;2022-12-18T05:58:36;98124.25;;;18.06
70435;BMP280;57876;47.792;12.960;2022-12-18T06:01:15;98121.91;;;18.10
70435;BMP280;57876;47.792;12.960;2022-12-18T06:03:41;98116.84;;;18.14
70435;BMP280;57876;47.792;12.960;2022-12-18T06:06:19;98121.97;;;18.17
70435;BMP280;57876;47.792;12.960;2022-12-18T06:08:44;98145.03;;;18.22
70435;BMP280;57876;47.792;12.960;2022-12-18T06:11:08;98143.56;;;18.28
70435;BMP280;57876;47.792;12.960;2022-12-18T06:13:33;98142.13;;;18.27
70435;BMP280;57876;47.792;12.960;2022-12-18T06:15:57;98141.75;;;18.31
70435;BMP280;57876;47.792;12.960;2022-12-18T06:18:22;98142.53;;;18.31
70435;BMP280;57876;47.792;12.960;2022-12-18T06:20:54;98148.72;;;18.32
70435;BMP280;57876;47.792;12.960;2022-12-18T06:23:18;98163.88;;;18.33
70435;BMP280;57876;47.792;12.960;2022-12-18T06:25:43;98157.69;;;18.32
70435;BMP280;57876;47.792;12.960;2022-12-18T06:28:07;98165.16;;;18.32
70435;BMP280;57876;47.792;12.960;2022-12-18T06:30:32;98168.44;;;18.30
70435;BMP280;57876;47.792;12.960;2022-12-18T06:32:56;98160.75;;;18.29
70435;BMP280;57876;47.792;12.960;2022-12-18T06:35:20;98163.31;;;18.27
70435;BMP280;57876;47.792;12.960;2022-12-18T06:37:45;98162.56;;;18.26
70435;BMP280;57876;47.792;12.960;2022-12-18T06:40:09;98161.63;;;18.24
70435;BMP280;57876;47.792;12.960;2022-12-18T06:42:34;98162.19;;;18.22
70435;BMP280;57876;47.792;12.960;2022-12-18T06:44:58;98170.19;;;18.20
70435;BMP280;57876;47.792;12.960;2022-12-18T06:47:23;98170.03;;;18.18
70435;BMP280;57876;47.792;12.960;2022-12-18T06:49:47;98171.09;;;18.15
70435;BMP280;57876;47.792;12.960;2022-12-18T06:52:11;98166.66;;;18.12
70435;BMP280;57876;47.792;12.960;2022-12-18T06:54:36;98168.69;;;18.12
70435;BMP280;57876;47.792;12.960;2022-12-18T06:57:00;98169.03;;;18.08
70435;BMP280;57876;47.792;12.960;2022-12-18T06:59:24;98170.81;;;18.06
70435;BMP280;57876;47.792;12.960;2022-12-18T07:01:49;98171.69;;;18.01
70435;BMP280;57876;47.792;12.960;2022-12-18T07:04:13;98168.78;;;17.99
70435;BMP280;57876;47.792;12.960;2022-12-18T07:06:38;98169.13;;;17.95
70435;BMP280;57876;47.792;12.960;2022-12-18T07:09:02;98173.66;;;17.93
70435;BMP280;57876;47.792;12.960;2022-12-18T07:11:26;98174.00;;;17.90
70435;BMP280;57876;47.792;12.960;2022-12-18T07:13:52;98176.00;;;17.89
70435;BMP280;57876;47.792;12.960;2022-12-18T07:16:18;98178.53;;;17.87
70435;BMP280;57876;47.792;12.960;2022-12-18T07:18:43;98180.38;;;17.85
70435;BMP280;57876;47.792;12.960;2022-12-18T07:21:13;98176.88;;;17.84
70435;BMP280;57876;47.792;12.960;2022-12-18T07:23:38;98182.13;;;17.82
70435;BMP280;57876;47.792;12.960;2022-12-18T07:26:12;98177.97;;;17.81
70435;BMP280;57876;47.792;12.960;2022-12-18T07:28:38;98182.69;;;17.81
70435;BMP280;57876;47.792;12.960;2022-12-18T07:31:04;98193.44;;;17.79
70435;BMP280;57876;47.792;12.960;2022-12-18T07:33:28;98183.75;;;17.78
70435;BMP280;57876;47.792;12.960;2022-12-18T07:35:53;98187.22;;;17.78
70435;BMP280;57876;47.792;12.960;2022-12-18T07:38:17;98197.25;;;17.76
70435;BMP280;57876;47.792;12.960;2022-12-18T07:40:41;98205.47;;;17.76
70435;BMP280;57876;47.792;12.960;2022-12-18T07:43:06;98203.25;;;17.74
70435;BMP280;57876;47.792;12.960;2022-12-18T07:45:30;98208.72;;;17.74
70435;BMP280;57876;47.792;12.960;2022-12-18T07:47:56;98201.97;;;17.75
70435;BMP280;57876;47.792;12.960;2022-12-18T07:50:20;98204.00;;;17.75
70435;BMP280;57876;47.792;12.960;2022-12-18T07:52:44;98188.28;;;17.75
70435;BMP280;57876;47.792;12.960;2022-12-18T07:55:09;98201.75;;;17.73
70435;BMP280;57876;47.792;12.960;2022-12-18T07:57:33;98199.78;;;17.74
70435;BMP280;57876;47.792;12.960;2022-12-18T07:59:58;98199.03;;;17.73
70435;BMP280;57876;47.792;12.960;2022-12-18T08:02:22;98197.03;;;17.74
70435;BMP280;57876;47.792;12.960;2022-12-18T08:04:46;98192.84;;;17.73
70435;BMP280;57876;47.792;12.960;2022-12-18T08:07:11;98201.75;;;17.73
70435;BMP280;57876;47.792;12.960;2022-12-18T08:09:35;98208.00;;;17.74
70435;BMP280;57876;47.792;12.960;2022-12-18T08:11:59;98203.06;;;17.72
70435;BMP280;57876;47.792;12.960;2022-12-18T08:14:24;98212.72;;;17.73
70435;BMP280;57876;47.792;12.960;2022-12-18T08:16:48;98217.47;;;17.73
70435;BMP280;57876;47.792;12.960;2022-12-18T08:19:13;98215.47;;;17.73
70435;BMP280;57876;47.792;12.960;2022-12-18T08:21:41;98207.25;;;17.73
70435;BMP280;57876;47.792;12.960;2022-12-18T08:24:06;98207.25;;;17.73
70435;BMP280;57876;47.792;12.960;2022-12-18T08:26:31;98201.75;;;17.73
70435;BMP280;57876;47.792;12.960;2022-12-18T08:28:57;98204.50;;;17.73
70435;BMP280;57876;47.792;12.960;2022-12-18T08:31:22;98198.31;;;17.73
70435;BMP280;57876;47.792;12.960;2022-12-18T08:33:51;98199.03;;;17.73
70435;BMP280;57876;47.792;12.960;2022-12-18T08:36:16;98197.03;;;17.74
70435;BMP280;57876;47.792;12.960;2022-12-18T08:38:41;98192.84;;;17.73
70435;BMP280;57876;47.792;12.960;2022-12-18T08:41:08;98190.09;;;17.73
70435;BMP280;57876;47.792;12.960;2022-12-18T08:43:33;98186.09;;;17.74
70435;BMP280;57876;47.792;12.960;2022-12-18T08:46:17;98187.34;;;17.73
70435;BMP280;57876;47.792;12.960;2022-12-18T08:48:42;98190.63;;;17.71
70435;BMP280;57876;47.792;12.960;2022-12-18T08:51:07;98185.69;;;17.70
70435;BMP280;57876;47.792;12.960;2022-12-18T08:53:33;98191.69;;;17.68
70435;BMP280;57876;47.792;12.960;2022-12-18T08:55:58;98199.91;;;17.68
70435;BMP280;57876;47.792;12.960;2022-12-18T08:58:23;98199.72;;;17.66
70435;BMP280;57876;47.792;12.960;2022-12-18T09:00:48;98194.03;;;17.64
70435;BMP280;57876;47.792;12.960;2022-12-18T09:03:17;98196.78;;;17.64
70435;BMP280;57876;47.792;12.960;2022-12-18T09:05:42;98200.06;;;17.63
70435;BMP280;57876;47.792;12.960;2022-12-18T09:08:07;98213.03;;;17.62
70435;BMP280;57876;47.792;12.960;2022-12-18T09:10:32;98221.94;;;17.63
70435;BMP280;57876;47.792;12.960;2022-12-18T09:12:56;98218.50;;;17.62
70435;BMP280;57876;47.792;12.960;2022-12-18T09:15:20;98222.69;;;17.63
70435;BMP280;57876;47.792;12.960;2022-12-18T09:17:45;98233.09;;;17.65
70435;BMP280;57876;47.792;12.960;2022-12-18T09:20:09;98233.09;;;17.65
70435;BMP280;57876;47.792;12.960;2022-12-18T09:22:34;98238.56;;;17.65
70435;BMP280;57876;47.792;12.960;2022-12-18T09:24:58;98239.31;;;17.65
70435;BMP280;57876;47.792;12.960;2022-12-18T09:27:22;98232.56;;;17.66
70435;BMP280;57876;47.792;12.960;2022-12-18T09:29:47;98239.53;;;17.67
70435;BMP280;57876;47.792;12.960;2022-12-18T09:32:11;98234.75;;;17.68
70435;BMP280;57876;47.792;12.960;2022-12-18T09:34:36;98225.28;;;17.69
70435;BMP280;57876;47.792;12.960;2022-12-18T09:37:00;98232.25;;;17.70
70435;BMP280;57876;47.792;12.960;2022-12-18T09:39:24;98230.22;;;17.70
70435;BMP280;57876;47.792;12.960;2022-12-18T09:41:54;98228.25;;;17.71
70435;BMP280;57876;47.792;12.960;2022-12-18T09:44:22;98229.72;;;17.72
70435;BMP280;57876;47.792;12.960;2022-12-18T09:46:52;98233.91;;;17.73
70435;BMP280;57876;47.792;12.960;2022-12-18T09:49:19;98232.63;;;17.74
70435;BMP280;57876;47.792;12.960;2022-12-18T09:51:50;98234.09;;;17.75
70435;BMP280;57876;47.792;12.960;2022-12-18T09:54:26;98236.09;;;17.74
70435;BMP280;57876;47.792;12.960;2022-12-18T09:56:54;98235.59;;;17.76
70435;BMP280;57876;47.792;12.960;2022-12-18T09:59:25;98233.59;;;17.76
70435;BMP280;57876;47.792;12.960;2022-12-18T10:01:51;98228.13;;;17.76
70435;BMP280;57876;47.792;12.960;2022-12-18T10:04:16;98233.03;;;17.78
70435;BMP280;57876;47.792;12.960;2022-12-18T10:14:34;98214.59;;;17.78
70435;BMP280;57876;47.792;12.960;2022-12-18T10:17:26;98202.91;;;17.78
70435;BMP280;57876;47.792;12.960;2022-12-18T10:22:37;98206.41;;;17.78
70435;BMP280;57876;47.792;12.960;2022-12-18T10:25:50;98194.91;;;17.80
70435;BMP280;57876;47.792;12.960;2022-12-18T10:28:18;98188.69;;;17.79
70435;BMP280;57876;47.792;12.960;2022-12-18T10:30:43;98178.47;;;17.80
70435;BMP280;57876;47.792;12.960;2022-12-18T10:33:20;98166.81;;;17.79
70435;BMP280;57876;47.792;12.960;2022-12-18T10:35:46;98175.72;;;17.80
70435;BMP280;57876;47.792;12.960;2022-12-18T10:41:01;98165.53;;;17.80
70435;BMP280;57876;47.792;12.960;2022-12-18T10:48:54;98162.59;;;17.78
70435;BMP280;57876;47.792;12.960;2022-12-18T10:51:36;98156.38;;;17.78
70435;BMP280;57876;47.792;12.960;2022-12-18T10:54:22;98158.16;;;17.75
70435;BMP280;57876;47.792;12.960;2022-12-18T10:56:46;98154.50;;;17.73
70435;BMP280;57876;47.792;12.960;2022-12-18T10:59:16;98149.56;;;17.71
70435;BMP280;57876;47.792;12.960;2022-12-18T11:01:56;98150.13;;;17.70
70435;BMP280;57876;47.792;12.960;2022-12-18T11:04:23;98143.88;;;17.69
70435;BMP280;57876;47.792;12.960;2022-12-18T11:09:26;98141.69;;;17.68
70435;BMP280;57876;47.792;12.960;2022-12-18T11:11:53;98154.84;;;17.69
70435;BMP280;57876;47.792;12.960;2022-12-18T11:14:22;98146.63;;;17.69
70435;BMP280;57876;47.792;12.960;2022-12-18T11:16:48;98147.38;;;17.70
70435;BMP280;57876;47.792;12.960;2022-12-18T11:19:17;98136.63;;;17.72
70435;BMP280;57876;47.792;12.960;2022-12-18T11:21:44;98141.38;;;17.71
70435;BMP280;57876;47.792;12.960;2022-12-18T11:24:20;98145.56;;;17.72
70435;BMP280;57876;47.792;12.960;2022-12-18T11:26:48;98145.03;;;17.74
70435;BMP280;57876;47.792;12.960;2022-12-18T11:29:27;98142.28;;;17.74
70435;BMP280;57876;47.792;12.960;2022-12-18T11:34:41;98147.22;;;17.75
70435;BMP280;57876;47.792;12.960;2022-12-18T11:37:07;98144.47;;;17.75
70435;BMP280;57876;47.792;12.960;2022-12-18T11:39:40;98145.97;;;17.76
70435;BMP280;57876;47.792;12.960;2022-12-18T11:42:16;98139.22;;;17.77
70435;BMP280;57876;47.792;12.960;2022-12-18T11:44:50;98133.00;;;17.77
70435;BMP280;57876;47.792;12.960;2022-12-18T11:50:00;98126.81;;;17.76
70435;BMP280;57876;47.792;12.960;2022-12-18T11:52:39;98120.06;;;17.77
70435;BMP280;57876;47.792;12.960;2022-12-18T11:55:30;98135.22;;;17.78
70435;BMP280;57876;47.792;12.960;2022-12-18T11:59:00;98134.47;;;17.78
70435;BMP280;57876;47.792;12.960;2022-12-18T12:01:02;98137.94;;;17.78
70435;BMP280;57876;47.792;12.960;2022-12-18T12:14:38;98122.44;;;17.81
70435;BMP280;57876;47.792;12.960;2022-12-18T12:17:17;98119.72;;;17.81
70435;BMP280;57876;47.792;12.960;2022-12-18T12:40:07;98139.06;;;17.83
70435;BMP280;57876;47.792;12.960;2022-12-18T12:42:40;98145.28;;;17.83
70435;BMP280;57876;47.792;12.960;2022-12-18T12:45:47;98144.00;;;17.84
70435;BMP280;57876;47.792;12.960;2022-12-18T12:50:43;98139.81;;;17.83
70435;BMP280;57876;47.792;12.960;2022-12-18T12:53:20;98135.81;;;17.84
70435;BMP280;57876;47.792;12.960;2022-12-18T12:55:45;98126.88;;;17.84
70435;BMP280;57876;47.792;12.960;2022-12-18T12:58:25;98128.84;;;17.83
70435;BMP280;57876;47.792;12.960;2022-12-18T13:03:42;98122.88;;;17.85
70435;BMP280;57876;47.792;12.960;2022-12-18T13:06:16;98125.38;;;17.83
70435;BMP280;57876;47.792;12.960;2022-12-18T13:09:00;98126.13;;;17.83
70435;BMP280;57876;47.792;12.960;2022-12-18T13:11:35;98114.22;;;17.81
70435;BMP280;57876;47.792;12.960;2022-12-18T13:14:39;98109.09;;;17.77
70435;BMP280;57876;47.792;12.960;2022-12-18T13:20:03;98109.44;;;17.74
70435;BMP280;57876;47.792;12.960;2022-12-18T13:22:32;98103.22;;;17.73
70435;BMP280;57876;47.792;12.960;2022-12-18T13:24:58;98098.31;;;17.72
70435;BMP280;57876;47.792;12.960;2022-12-18T13:28:11;98110.69;;;17.73
70435;BMP280;57876;47.792;12.960;2022-12-18T13:30:50;98110.69;;;17.73
70435;BMP280;57876;47.792;12.960;2022-12-18T13:40:58;98112.91;;;17.74
70435;BMP280;57876;47.792;12.960;2022-12-18T13:43:29;98116.38;;;17.75
70435;BMP280;57876;47.792;12.960;2022-12-18T13:51:41;98120.59;;;17.76
70435;BMP280;57876;47.792;12.960;2022-12-18T13:54:23;98120.78;;;17.78
70435;BMP280;57876;47.792;12.960;2022-12-18T13:56:50;98118.03;;;17.78
70435;BMP280;57876;47.792;12.960;2022-12-18T13:59:19;98113.31;;;17.78
70435;BMP280;57876;47.792;12.960;2022-12-18T14:01:58;98122.25;;;17.79
70435;BMP280;57876;47.792;12.960;2022-12-18T14:04:31;98121.72;;;17.80
70435;BMP280;57876;47.792;12.960;2022-12-18T14:07:07;98119.50;;;17.79
70435;BMP280;57876;47.792;12.960;2022-12-18T14:09:45;98121.72;;;17.80
70435;BMP280;57876;47.792;12.960;2022-12-18T14:12:22;98119.00;;;17.80
70435;BMP280;57876;47.792;12.960;2022-12-18T14:15:25;98124.47;;;17.80
70435;BMP280;57876;47.792;12.960;2022-12-18T14:18:00;98125.94;;;17.81
70435;BMP280;57876;47.792;12.960;2022-12-18T14:20:29;98120.47;;;17.81
70435;BMP280;57876;47.792;12.960;2022-12-18T14:22:55;98123.91;;;17.82
70435;BMP280;57876;47.792;12.960;2022-12-18T14:27:47;98130.84;;;17.83
70435;BMP280;57876;47.792;12.960;2022-12-18T14:30:30;98123.38;;;17.83
70435;BMP280;57876;47.792;12.960;2022-12-18T14:35:28;98125.38;;;17.83
70435;BMP280;57876;47.792;12.960;2022-12-18T14:37:53;98124.66;;;17.82
70435;BMP280;57876;47.792;12.960;2022-12-18T14:40:18;98121.91;;;17.82
70435;BMP280;57876;47.792;12.960;2022-12-18T14:42:42;98126.13;;;17.83
70435;BMP280;57876;47.792;12.960;2022-12-18T14:45:39;98117.91;;;17.83
70435;BMP280;57876;47.792;12.960;2022-12-18T14:51:19;98126.13;;;17.83
70435;BMP280;57876;47.792;12.960;2022-12-18T14:56:25;98137.81;;;17.84
70435;BMP280;57876;47.792;12.960;2022-12-18T14:58:54;98123.38;;;17.83
70435;BMP280;57876;47.792;12.960;2022-12-18T15:01:44;98133.81;;;17.85
70435;BMP280;57876;47.792;12.960;2022-12-18T15:04:29;98125.59;;;17.85
70435;BMP280;57876;47.792;12.960;2022-12-18T15:07:14;98128.34;;;17.85
70435;BMP280;57876;47.792;12.960;2022-12-18T15:10:01;98126.31;;;17.85
70435;BMP280;57876;47.792;12.960;2022-12-18T15:14:57;98126.31;;;17.85
70435;BMP280;57876;47.792;12.960;2022-12-18T15:17:22;98124.84;;;17.84
70435;BMP280;57876;47.792;12.960;2022-12-18T15:19:49;98129.06;;;17.85
70435;BMP280;57876;47.792;12.960;2022-12-18T15:22:30;98129.06;;;17.85
70435;BMP280;57876;47.792;12.960;2022-12-18T15:24:58;98124.84;;;17.84
70435;BMP280;57876;47.792;12.960;2022-12-18T15:27:33;98129.06;;;17.85
70435;BMP280;57876;47.792;12.960;2022-12-18T15:30:22;98127.59;;;17.84
70435;BMP280;57876;47.792;12.960;2022-12-18T15:32:47;98130.84;;;17.83
70435;BMP280;57876;47.792;12.960;2022-12-18T15:35:24;98125.72;;;17.79
70435;BMP280;57876;47.792;12.960;2022-12-18T15:37:50;98115.31;;;17.78
70435;BMP280;57876;47.792;12.960;2022-12-18T15:40:18;98112.38;;;17.76
70435;BMP280;57876;47.792;12.960;2022-12-18T15:42:43;98106.16;;;17.75
70435;BMP280;57876;47.792;12.960;2022-12-18T15:45:27;98108.69;;;17.73
70435;BMP280;57876;47.792;12.960;2022-12-18T15:47:51;98097.00;;;17.73
70435;BMP280;57876;47.792;12.960;2022-12-18T15:50:16;98109.97;;;17.72
70435;BMP280;57876;47.792;12.960;2022-12-18T15:52:43;98102.50;;;17.73
70435;BMP280;57876;47.792;12.960;2022-12-18T15:55:20;98092.25;;;17.73
70435;BMP280;57876;47.792;12.960;2022-12-18T15:58:05;98083.31;;;17.73
70435;BMP280;57876;47.792;12.960;2022-12-18T16:00:29;98081.31;;;17.73